createdAt,value
2022-12-27T00:27:09.662Z,4.78
2022-12-27T00:40:34.402Z,4.72
2022-12-27T01:14:02.458Z,4.69
2022-12-27T01:16:31.858Z,4.70
2022-12-27T01:19:00.511Z,4.69
2022-12-27T01:23:06.579Z,4.67
2022-12-27T01:24:22.913Z,4.64
2022-12-27T01:26:56.791Z,4.62
2022-12-27T01:30:39.275Z,4.63
2022-12-27T01:33:13.140Z,4.61
2022-12-27T01:44:44.846Z,4.54
2022-12-27T01:47:12.420Z,4.53
2022-12-27T01:49:58.462Z,4.54
2022-12-27T01:52:34.936Z,4.54
2022-12-27T01:55:28.766Z,4.52
2022-12-27T01:58:04.240Z,4.49
2022-12-27T02:00:34.951Z,4.48
2022-12-27T02:04:50.458Z,4.49
2022-12-27T02:07:31.048Z,4.46
2022-12-27T02:10:05.370Z,4.44
2022-12-27T02:12:44.358Z,4.41
2022-12-27T02:34:16.738Z,4.27
2022-12-27T02:36:50.952Z,4.26
2022-12-27T02:39:38.466Z,4.25
2022-12-27T03:01:44.432Z,4.09
2022-12-27T03:04:42.365Z,4.05
2022-12-27T03:07:42.193Z,4.00
2022-12-27T03:10:37.027Z,3.96
2022-12-27T03:13:47.570Z,3.94
2022-12-27T03:16:41.209Z,3.94
2022-12-27T03:19:35.272Z,3.92
2022-12-27T03:22:21.714Z,3.89
2022-12-27T03:25:07.222Z,3.87
2022-12-27T03:27:36.495Z,3.85
2022-12-27T03:30:27.287Z,3.85
2022-12-27T03:33:13.203Z,3.85
2022-12-27T03:36:16.049Z,3.85
2022-12-27T03:39:11.568Z,3.81
2022-12-27T03:42:09.393Z,3.80
2022-12-27T03:44:36.679Z,3.82
2022-12-27T03:47:29.824Z,3.87
2022-12-27T03:50:25.340Z,3.89
2022-12-27T03:53:10.500Z,3.88
2022-12-27T03:55:38.401Z,3.88
2022-12-27T03:58:05.551Z,3.88
2022-12-27T04:00:32.737Z,3.88
2022-12-27T04:02:59.823Z,3.89
2022-12-27T04:05:27.233Z,3.89
2022-12-27T04:08:12.899Z,3.88
2022-12-27T04:10:58.451Z,3.87
2022-12-27T04:13:44.520Z,3.84
2022-12-27T04:16:30.093Z,3.83
2022-12-27T04:19:15.919Z,3.83
2022-12-27T04:22:01.391Z,3.82
2022-12-27T04:24:47.121Z,3.81
2022-12-27T04:27:32.541Z,3.78
2022-12-27T04:30:18.014Z,3.77
2022-12-27T04:33:03.433Z,3.78
2022-12-27T04:35:30.397Z,3.80
2022-12-27T04:37:57.338Z,3.81
2022-12-27T04:40:42.951Z,3.80
2022-12-27T04:43:28.380Z,3.79
2022-12-27T04:46:13.881Z,3.78
2022-12-27T04:48:59.395Z,3.78
2022-12-27T04:51:44.968Z,3.77
2022-12-27T04:54:37.667Z,3.76
2022-12-27T04:57:05.251Z,3.75
2022-12-27T04:59:50.764Z,3.76
2022-12-27T05:02:19.096Z,3.77
2022-12-27T05:04:48.615Z,3.79
2022-12-27T05:07:34.463Z,3.79
2022-12-27T05:10:22.393Z,3.78
2022-12-27T05:13:07.928Z,3.77
2022-12-27T05:15:34.930Z,3.76
2022-12-27T05:18:02.111Z,3.77
2022-12-27T05:20:29.263Z,3.79
2022-12-27T05:23:14.774Z,3.79
2022-12-27T05:25:44.263Z,3.78
2022-12-27T05:28:11.866Z,3.77
2022-12-27T05:30:41.679Z,3.76
2022-12-27T05:33:08.852Z,3.76
2022-12-27T05:35:36.207Z,3.78
2022-12-27T05:38:03.950Z,3.79
2022-12-27T05:40:31.228Z,3.78
2022-12-27T05:42:59.935Z,3.77
2022-12-27T05:45:27.809Z,3.77
2022-12-27T05:47:54.918Z,3.76
2022-12-27T05:50:21.994Z,3.77
2022-12-27T05:52:48.997Z,3.78
2022-12-27T05:55:15.968Z,3.77
2022-12-27T05:57:42.948Z,3.77
2022-12-27T06:00:11.443Z,3.74
2022-12-27T06:02:39.202Z,3.72
2022-12-27T06:05:06.529Z,3.71
2022-12-27T06:07:35.941Z,3.71
2022-12-27T06:10:05.424Z,3.70
2022-12-27T06:12:32.451Z,3.67
2022-12-27T06:14:59.402Z,3.66
2022-12-27T06:17:26.674Z,3.68
2022-12-27T06:19:57.022Z,3.70
2022-12-27T06:22:25.038Z,3.72
2022-12-27T06:24:51.990Z,3.71
2022-12-27T06:27:18.976Z,3.70
2022-12-27T06:29:45.945Z,3.68
2022-12-27T06:32:12.990Z,3.68
2022-12-27T06:34:39.947Z,3.69
2022-12-27T06:37:06.890Z,3.69
2022-12-27T06:39:33.850Z,3.68
2022-12-27T06:42:00.774Z,3.66
2022-12-27T06:44:27.984Z,3.65
2022-12-27T06:46:54.939Z,3.65
2022-12-27T06:49:21.851Z,3.64
2022-12-27T06:51:52.724Z,3.65
2022-12-27T06:54:24.549Z,3.63
2022-12-27T06:56:51.499Z,3.60
2022-12-27T06:59:18.485Z,3.57
2022-12-27T07:01:45.539Z,3.56
2022-12-27T07:04:12.535Z,3.56
2022-12-27T07:06:39.645Z,3.54
2022-12-27T07:09:07.304Z,3.52
2022-12-27T07:11:35.757Z,3.51
2022-12-27T07:14:03.038Z,3.51
2022-12-27T07:16:30.571Z,3.53
2022-12-27T07:18:59.236Z,3.54
2022-12-27T07:21:28.653Z,3.54
2022-12-27T07:23:56.487Z,3.54
2022-12-27T07:26:29.279Z,3.53
2022-12-27T07:28:58.131Z,3.52
2022-12-27T07:31:29.080Z,3.53
2022-12-27T07:33:57.922Z,3.54
2022-12-27T07:36:28.181Z,3.54
2022-12-27T07:38:55.527Z,3.54
2022-12-27T07:41:24.204Z,3.53
2022-12-27T07:43:51.398Z,3.53
2022-12-27T07:46:23.372Z,3.54
2022-12-27T07:48:54.205Z,3.56
2022-12-27T07:51:22.291Z,3.56
2022-12-27T07:53:50.452Z,3.56
2022-12-27T07:56:26.229Z,3.56
2022-12-27T07:58:56.570Z,3.54
2022-12-27T08:01:26.550Z,3.53
2022-12-27T08:03:54.727Z,3.54
2022-12-27T08:06:32.730Z,3.53
2022-12-27T08:09:04.182Z,3.52
2022-12-27T08:11:31.423Z,3.51
2022-12-27T08:13:58.608Z,3.50
2022-12-27T08:16:26.472Z,3.50
2022-12-27T08:18:53.584Z,3.52
2022-12-27T08:21:21.074Z,3.55
2022-12-27T08:23:48.484Z,3.58
2022-12-27T08:26:15.869Z,3.59
2022-12-27T08:28:43.046Z,3.57
2022-12-27T08:31:12.384Z,3.56
2022-12-27T08:33:41.335Z,3.57
2022-12-27T08:38:58.332Z,3.61
2022-12-27T08:41:25.289Z,3.61
2022-12-27T08:43:52.328Z,3.59
2022-12-27T08:46:19.527Z,3.58
2022-12-27T08:48:48.367Z,3.57
2022-12-27T08:51:24.830Z,3.56
2022-12-27T08:53:58.653Z,3.57
2022-12-27T08:56:25.901Z,3.57
2022-12-27T08:58:52.898Z,3.56
2022-12-27T09:01:20.026Z,3.56
2022-12-27T09:03:47.233Z,3.57
2022-12-27T09:06:20.284Z,3.58
2022-12-27T09:08:49.266Z,3.58
2022-12-27T09:11:42.725Z,3.57
2022-12-27T09:14:10.174Z,3.57
2022-12-27T09:16:38.306Z,3.57
2022-12-27T09:19:05.302Z,3.58
2022-12-27T09:21:33.482Z,3.59
2022-12-27T09:24:01.729Z,3.61
2022-12-27T09:26:30.633Z,3.63
2022-12-27T09:28:58.482Z,3.65
2022-12-27T09:31:25.985Z,3.64
2022-12-27T09:33:53.736Z,3.65
2022-12-27T09:36:23.811Z,3.67
2022-12-27T09:38:52.346Z,3.70
2022-12-27T09:44:54.075Z,3.71
2022-12-27T09:47:53.596Z,3.70
2022-12-27T09:50:55.045Z,3.70
2022-12-27T09:53:33.042Z,3.74
2022-12-27T09:56:00.273Z,3.75
2022-12-27T09:58:40.372Z,3.74
2022-12-27T10:01:35.187Z,3.73
2022-12-27T10:04:04.531Z,3.71
2022-12-27T10:06:49.728Z,3.69
2022-12-27T10:09:39.325Z,3.71
2022-12-27T10:12:37.572Z,3.72
2022-12-27T10:15:31.658Z,3.71
2022-12-27T10:18:20.254Z,3.72
2022-12-27T10:21:01.505Z,3.74
2022-12-27T10:23:34.852Z,3.74
2022-12-27T10:26:12.266Z,3.76
2022-12-27T10:28:42.798Z,3.79
2022-12-27T10:31:17.314Z,3.79
2022-12-27T10:33:46.420Z,3.78
2022-12-27T10:36:18.292Z,3.77
2022-12-27T10:38:45.208Z,3.77
2022-12-27T10:41:18.124Z,3.77
2022-12-27T10:43:50.446Z,3.76
2022-12-27T10:46:33.170Z,3.77
2022-12-27T10:49:21.588Z,3.77
2022-12-27T10:51:51.884Z,3.76
2022-12-27T10:54:23.806Z,3.76
2022-12-27T10:56:51.319Z,3.78
2022-12-27T10:59:21.413Z,3.78
2022-12-27T11:02:10.114Z,3.79
2022-12-27T11:04:55.520Z,3.78
2022-12-27T11:07:22.496Z,3.79
2022-12-27T11:09:58.301Z,3.79
2022-12-27T11:12:31.700Z,3.82
2022-12-27T11:15:11.265Z,3.82
2022-12-27T11:17:49.512Z,3.82
2022-12-27T11:20:22.175Z,3.81
2022-12-27T11:22:51.943Z,3.83
2022-12-27T11:25:19.827Z,3.85
2022-12-27T11:27:51.852Z,3.88
2022-12-27T11:30:27.957Z,3.91
2022-12-27T11:32:56.952Z,3.93
2022-12-27T11:35:24.080Z,3.92
2022-12-27T11:37:51.923Z,3.91
2022-12-27T11:40:34.048Z,3.92
2022-12-27T11:43:10.529Z,3.94
2022-12-27T11:45:48.459Z,3.98
2022-12-27T11:48:19.251Z,3.99
2022-12-27T11:51:05.439Z,3.99
2022-12-27T11:53:32.528Z,4.00
2022-12-27T11:56:24.335Z,4.01
2022-12-27T11:59:00.216Z,4.05
2022-12-27T12:01:37.100Z,4.06
2022-12-27T12:04:18.158Z,4.06
2022-12-27T12:07:11.258Z,4.04
2022-12-27T12:10:02.966Z,4.07
2022-12-27T12:13:00.831Z,4.10
2022-12-27T12:15:48.198Z,4.13
2022-12-27T12:18:38.388Z,4.12
2022-12-27T12:21:22.735Z,4.09
2022-12-27T12:24:26.971Z,4.07
2022-12-27T12:27:21.824Z,4.07
2022-12-27T12:30:04.317Z,4.11
2022-12-27T12:32:31.416Z,4.15
2022-12-27T12:35:27.108Z,4.18
2022-12-27T12:38:43.179Z,4.18
2022-12-27T12:41:37.792Z,4.17
2022-12-27T12:44:22.985Z,4.15
2022-12-27T12:47:33.254Z,4.17
2022-12-27T12:50:13.380Z,4.19
2022-12-27T12:52:46.775Z,4.20
2022-12-27T12:55:38.701Z,4.20
2022-12-27T12:58:45.677Z,4.20
2022-12-27T13:01:34.448Z,4.19
2022-12-27T13:04:23.721Z,4.21
2022-12-27T13:11:39.063Z,4.26
2022-12-27T13:15:25.277Z,4.27
2022-12-27T13:19:24.610Z,4.23
2022-12-27T13:22:16.183Z,4.20
2022-12-27T13:24:53.327Z,4.22
2022-12-27T13:27:30.269Z,4.23
2022-12-27T13:33:21.656Z,4.28
2022-12-27T13:35:59.807Z,4.29
2022-12-27T13:38:46.308Z,4.27
2022-12-27T13:41:33.415Z,4.26
2022-12-27T13:45:19.182Z,4.27
2022-12-27T13:48:08.141Z,4.30
2022-12-27T13:51:04.242Z,4.31
2022-12-27T13:53:51.297Z,4.28
2022-12-27T13:56:54.992Z,4.28
2022-12-27T13:59:28.687Z,4.28
2022-12-27T14:02:25.136Z,4.27
2022-12-27T14:06:10.791Z,4.30
2022-12-27T14:13:05.329Z,4.27
2022-12-27T14:16:01.981Z,4.20
2022-12-27T14:18:39.219Z,4.24
2022-12-27T14:24:19.049Z,4.25
2022-12-27T14:25:42.075Z,4.25
2022-12-27T14:28:15.011Z,4.26
2022-12-27T14:30:45.347Z,4.25
2022-12-27T14:33:30.450Z,4.25
2022-12-27T14:36:16.325Z,4.25
2022-12-27T14:38:55.892Z,4.26
2022-12-27T14:41:59.573Z,4.26
2022-12-27T14:44:35.567Z,4.25
2022-12-27T14:47:30.073Z,4.24
2022-12-27T14:50:57.528Z,4.20
2022-12-27T14:54:05.529Z,4.19
2022-12-27T14:57:17.914Z,4.17
2022-12-27T15:00:16.637Z,4.17
2022-12-27T15:02:50.165Z,4.18
2022-12-27T15:09:05.401Z,4.14
2022-12-27T15:16:40.427Z,4.05
2022-12-27T15:19:34.694Z,4.03
2022-12-27T15:27:06.936Z,4.02
2022-12-27T15:30:29.660Z,4.03
2022-12-27T15:34:10.766Z,4.07
2022-12-27T15:36:46.847Z,4.13
2022-12-27T15:39:33.808Z,4.15
2022-12-27T15:42:22.404Z,4.16
2022-12-27T15:45:07.754Z,4.16
2022-12-27T15:48:19.551Z,4.16
2022-12-27T15:51:05.294Z,4.20
2022-12-27T15:53:49.284Z,4.23
2022-12-27T15:57:04.796Z,4.23
2022-12-27T15:59:37.322Z,4.22
2022-12-27T16:02:27.261Z,4.23
2022-12-27T16:05:01.440Z,4.22
2022-12-27T16:13:18.182Z,4.24
2022-12-27T16:58:37.251Z,4.14
2022-12-27T17:01:44.934Z,4.13
2022-12-27T17:22:06.456Z,4.19
2022-12-27T17:25:09.234Z,4.22
2022-12-27T17:28:29.212Z,4.27
2022-12-27T17:31:10.865Z,4.28
2022-12-27T17:34:11.023Z,4.30
2022-12-27T17:36:47.261Z,4.29
2022-12-27T17:39:23.696Z,4.26
2022-12-27T17:42:24.502Z,4.27
2022-12-27T17:44:58.045Z,4.27
2022-12-27T17:48:06.202Z,4.27
2022-12-27T17:54:11.506Z,4.13
2022-12-27T17:57:14.234Z,4.08
2022-12-27T17:59:47.419Z,4.07
2022-12-27T18:03:22.011Z,4.10
2022-12-27T18:05:49.683Z,4.12
2022-12-27T18:08:35.688Z,4.12
2022-12-27T18:11:05.428Z,4.12
2022-12-27T18:14:00.273Z,4.11
2022-12-27T18:17:01.153Z,4.09
2022-12-27T18:19:31.014Z,4.11
2022-12-27T18:22:02.072Z,4.14
2022-12-27T18:24:43.135Z,4.14
2022-12-27T18:27:20.504Z,4.13
2022-12-27T18:29:48.087Z,4.12
2022-12-27T18:32:17.970Z,4.12
2022-12-27T18:34:48.976Z,4.11
2022-12-27T18:37:22.148Z,4.11
2022-12-27T18:40:01.574Z,4.10
2022-12-27T18:42:34.119Z,4.07
2022-12-27T18:45:18.198Z,4.06
2022-12-27T18:47:50.024Z,4.06
2022-12-27T18:50:26.980Z,4.06
2022-12-27T18:53:05.137Z,4.08
2022-12-27T18:55:33.980Z,4.05
2022-12-27T18:58:19.899Z,4.10
2022-12-27T19:00:52.901Z,4.10
2022-12-27T19:03:20.914Z,4.08
2022-12-27T19:06:10.553Z,4.10
2022-12-27T19:08:45.040Z,4.08
2022-12-27T19:11:54.034Z,4.10
2022-12-27T19:14:22.995Z,4.06
2022-12-27T19:17:07.006Z,4.04
2022-12-27T19:19:42.002Z,4.04
2022-12-27T19:23:38.759Z,4.03
2022-12-27T19:26:35.959Z,4.08
2022-12-27T19:29:36.544Z,4.04
2022-12-27T19:32:45.136Z,4.06
2022-12-27T19:44:05.410Z,4.02
2022-12-27T19:51:09.870Z,3.94
2022-12-27T19:54:36.988Z,3.92
2022-12-27T19:59:08.365Z,3.91
2022-12-27T20:01:03.100Z,3.91
2022-12-27T20:03:46.554Z,3.90
2022-12-27T20:06:23.016Z,3.83
2022-12-27T20:11:01.319Z,3.89
2022-12-27T20:25:28.300Z,3.81
2022-12-27T20:28:48.967Z,3.78
2022-12-27T20:35:00.212Z,3.73
2022-12-27T20:41:44.361Z,3.64
2022-12-27T20:48:57.206Z,3.63
2022-12-27T20:54:15.500Z,3.61
2022-12-27T20:56:44.092Z,3.58
2022-12-27T20:59:11.621Z,3.55
2022-12-27T21:01:39.343Z,3.54
2022-12-27T21:04:06.768Z,3.55
2022-12-27T21:06:34.036Z,3.55
2022-12-27T21:09:01.215Z,3.52
2022-12-27T21:11:30.870Z,3.49
2022-12-27T21:14:03.416Z,3.44
2022-12-27T21:16:33.825Z,3.40
2022-12-27T21:37:13.425Z,3.22
2022-12-27T22:16:30.909Z,3.01
2022-12-27T22:20:14.606Z,2.98
2022-12-27T22:34:45.990Z,2.86
2022-12-27T22:37:13.523Z,2.84
2022-12-27T22:39:54.648Z,2.83
2022-12-27T22:42:29.097Z,2.78
2022-12-27T22:44:56.519Z,2.81
2022-12-27T22:47:28.010Z,2.82
2022-12-27T22:49:58.203Z,2.82
2022-12-27T22:52:25.515Z,2.81
2022-12-27T22:59:30.388Z,2.72
2022-12-27T23:02:03.352Z,2.70
2022-12-27T23:04:44.932Z,2.71
